Time;durP1;ratioP1;P1;durP2;ratioP2;P2;SDS_P1;SDS_P2;PMS_P1;PMS_P2;Temp;Humidity;BMP_temperature;BMP_pressure;BME280_temperature;BME280_humidity;BME280_pressure;Samples;Min_cycle;Max_cycle;Signal;HPM_P1;HPM_P2
2021/10/31 00:00:22;;;;;;;41.30;33.33;;;;;;;5.83;100.00;95478.72;1043396;28;20048;-72
2021/10/31 00:00:52;;;;;;;39.55;31.13;;;;;;;5.82;100.00;95479.75;1038753;28;20049;-71
2021/10/31 00:01:23;;;;;;;48.38;34.92;;;;;;;5.82;100.00;95471.94;1034679;28;20030;-73
2021/10/31 00:01:53;;;;;;;40.88;30.95;;;;;;;5.83;100.00;95477.91;1038074;28;20035;-74
2021/10/31 00:02:24;;;;;;;47.75;34.17;;;;;;;5.79;100.00;95477.63;1038864;28;20439;-70
2021/10/31 00:02:54;;;;;;;40.58;31.25;;;;;;;5.75;100.00;95465.31;1042676;28;20368;-71
2021/10/31 00:03:24;;;;;;;31.75;24.25;;;;;;;5.84;100.00;95479.53;1038567;28;20029;-71
2021/10/31 00:03:55;;;;;;;34.22;27.25;;;;;;;5.82;100.00;95471.16;1038141;28;20053;-69
2021/10/31 00:04:25;;;;;;;37.75;28.88;;;;;;;5.69;100.00;95459.25;1038477;28;20630;-71
2021/10/31 00:04:56;;;;;;;29.73;24.90;;;;;;;5.85;100.00;95475.88;1034713;28;20030;-73
2021/10/31 00:05:26;;;;;;;32.75;24.38;;;;;;;5.90;100.00;95486.34;1025985;28;20038;-72
2021/10/31 00:05:57;;;;;;;30.38;24.40;;;;;;;5.93;100.00;95483.31;1023061;28;20027;-71
2021/10/31 00:06:27;;;;;;;34.83;24.58;;;;;;;5.91;100.00;95480.91;1025844;28;20684;-71
2021/10/31 00:06:58;;;;;;;34.90;26.67;;;;;;;5.90;100.00;95486.34;1029981;28;20030;-71
2021/10/31 00:07:28;;;;;;;29.05;23.23;;;;;;;5.92;100.00;95486.91;1026168;28;20026;-71
2021/10/31 00:07:59;;;;;;;27.70;22.30;;;;;;;5.89;100.00;95462.13;1031838;28;20029;-70
2021/10/31 00:08:30;;;;;;;27.25;23.70;;;;;;;5.93;100.00;95472.09;1034360;28;20026;-70
2021/10/31 00:09:00;;;;;;;25.48;21.58;;;;;;;6.06;100.00;95480.38;1030143;28;20026;-72
2021/10/31 00:09:30;;;;;;;24.98;20.20;;;;;;;6.08;100.00;95477.53;1030316;28;20142;-72
2021/10/31 00:10:01;;;;;;;27.02;21.05;;;;;;;6.02;100.00;95470.69;1029907;28;20030;-71
2021/10/31 00:10:31;;;;;;;25.40;21.30;;;;;;;6.09;100.00;95474.66;1029781;28;20509;-71
2021/10/31 00:11:02;;;;;;;34.45;23.48;;;;;;;6.05;100.00;95475.41;1026054;28;20046;-72
2021/10/31 00:11:33;;;;;;;28.13;23.95;;;;;;;6.02;100.00;95473.28;1034291;28;20060;-71
2021/10/31 00:12:05;;;;;;;27.20;21.80;;;;;;;6.09;100.00;95481.69;1042890;28;20079;-71
2021/10/31 00:12:35;;;;;;;27.27;21.73;;;;;;;6.08;100.00;95486.13;1034552;28;20256;-72
2021/10/31 00:13:06;;;;;;;25.23;21.60;;;;;;;6.07;100.00;95488.97;1033571;28;20644;-72
2021/10/31 00:13:36;;;;;;;25.58;21.75;;;;;;;6.11;100.00;95490.88;1028378;28;20027;-72
2021/10/31 00:14:07;;;;;;;24.70;20.80;;;;;;;6.11;100.00;95490.88;1029793;28;20034;-72
2021/10/31 00:14:37;;;;;;;23.42;19.70;;;;;;;6.11;100.00;95490.88;1034274;28;20021;-72
2021/10/31 00:15:08;;;;;;;31.50;22.63;;;;;;;6.07;100.00;95481.16;1033592;28;20064;-71
2021/10/31 00:15:38;;;;;;;26.17;20.92;;;;;;;6.13;100.00;95480.19;1022974;28;20088;-72
2021/10/31 00:16:09;;;;;;;22.95;17.85;;;;;;;6.21;100.00;95484.22;1027640;28;20026;-72
2021/10/31 00:16:39;;;;;;;22.50;17.10;;;;;;;6.29;100.00;95481.97;1026492;28;20052;-72
2021/10/31 00:17:10;;;;;;;19.15;15.57;;;;;;;6.36;100.00;95485.19;1030719;28;20478;-71
2021/10/31 00:17:40;;;;;;;20.15;16.20;;;;;;;6.44;100.00;95481.38;1042918;28;20530;-72
2021/10/31 00:18:11;;;;;;;22.40;17.52;;;;;;;6.45;100.00;95484.78;1046606;28;20028;-70
2021/10/31 00:18:41;;;;;;;22.23;18.00;;;;;;;6.37;100.00;95478.97;1038224;28;20043;-72
2021/10/31 00:19:12;;;;;;;21.27;17.58;;;;;;;6.44;100.00;95491.00;1030510;28;20018;-70
2021/10/31 00:19:42;;;;;;;20.77;17.33;;;;;;;6.47;100.00;95487.91;1026604;28;20022;-72
2021/10/31 00:20:13;;;;;;;22.85;17.52;;;;;;;6.45;100.00;95485.56;1030307;28;20065;-70
2021/10/31 00:20:43;;;;;;;22.50;18.05;;;;;;;6.43;100.00;95486.81;1034442;28;20010;-70
2021/10/31 00:21:13;;;;;;;21.50;17.58;;;;;;;6.46;100.00;95491.56;1030636;28;20015;-71
2021/10/31 00:21:44;;;;;;;25.13;18.52;;;;;;;6.47;100.00;95490.50;1026381;28;20026;-71
2021/10/31 00:22:14;;;;;;;21.88;16.92;;;;;;;6.47;100.00;95480.09;1030464;28;20121;-72
2021/10/31 00:22:47;;;;;;;22.27;16.77;;;;;;;6.47;100.00;95478.28;1034318;28;20475;-71
2021/10/31 00:23:17;;;;;;;23.80;17.15;;;;;;;6.56;100.00;95487.25;1026448;28;20129;-71
2021/10/31 00:23:49;;;;;;;20.83;16.67;;;;;;;6.56;100.00;95486.47;1026632;28;20254;-70
2021/10/31 00:24:19;;;;;;;22.95;17.95;;;;;;;6.54;100.00;95494.53;1025225;28;20019;-70
2021/10/31 00:24:50;;;;;;;24.92;19.33;;;;;;;6.51;100.00;95489.03;1031267;28;20262;-71
2021/10/31 00:25:20;;;;;;;21.35;17.83;;;;;;;6.51;100.00;95489.03;1033959;28;20089;-70
2021/10/31 00:25:51;;;;;;;23.77;18.98;;;;;;;6.48;100.00;95490.28;1034286;28;20018;-72
2021/10/31 00:26:25;;;;;;;26.92;20.48;;;;;;;6.43;100.00;95486.81;1034588;28;20580;-72
2021/10/31 00:26:55;;;;;;;26.35;20.52;;;;;;;6.46;100.00;95496.75;1030200;28;20011;-71
2021/10/31 00:27:25;;;;;;;24.23;20.95;;;;;;;6.50;100.00;95497.84;1026539;28;20265;-70
2021/10/31 00:27:56;;;;;;;25.77;20.42;;;;;;;6.50;100.00;95500.47;1026251;28;20019;-72
2021/10/31 00:28:27;;;;;;;25.38;21.58;;;;;;;6.53;100.00;95494.75;1026939;28;20015;-72
2021/10/31 00:28:57;;;;;;;23.42;19.60;;;;;;;6.53;100.00;95494.75;1034755;28;20018;-71
2021/10/31 00:29:28;;;;;;;29.70;20.05;;;;;;;6.57;100.00;95493.25;1038641;28;20052;-73
2021/10/31 00:29:58;;;;;;;24.90;20.88;;;;;;;6.57;100.00;95498.47;1034337;28;20025;-71
2021/10/31 00:30:29;;;;;;;25.80;20.38;;;;;;;6.62;100.00;95501.13;1026449;28;20019;-72
2021/10/31 00:30:59;;;;;;;26.83;20.70;;;;;;;6.63;100.00;95494.88;1026080;28;20014;-70
2021/10/31 00:31:29;;;;;;;25.92;20.45;;;;;;;6.60;100.00;95492.75;1026604;28;20038;-72
2021/10/31 00:32:00;;;;;;;26.50;21.88;;;;;;;6.64;100.00;95499.09;1026243;28;20031;-71
2021/10/31 00:32:30;;;;;;;29.55;21.35;;;;;;;6.65;100.00;95497.25;1034555;28;20030;-74
2021/10/31 00:33:01;;;;;;;26.98;21.92;;;;;;;6.64;100.00;95493.88;1037588;28;20388;-72
2021/10/31 00:33:31;;;;;;;27.33;21.67;;;;;;;6.63;100.00;95491.50;1042574;28;20032;-71
2021/10/31 00:34:02;;;;;;;25.15;21.02;;;;;;;6.65;100.00;95492.06;1046909;28;20595;-71
2021/10/31 00:34:32;;;;;;;23.17;20.50;;;;;;;6.66;100.00;95488.41;1042582;28;20135;-72
2021/10/31 00:35:04;;;;;;;25.95;20.40;;;;;;;6.67;100.00;95485.53;1039178;28;20508;-71
2021/10/31 00:35:35;;;;;;;24.50;21.10;;;;;;;6.69;100.00;95491.31;1042372;28;20080;-70
2021/10/31 00:36:06;;;;;;;26.17;19.48;;;;;;;6.70;100.00;95484.28;1041970;28;20278;-71
2021/10/31 00:36:37;;;;;;;25.58;20.92;;;;;;;6.72;100.00;95496.03;1030538;28;20268;-71
2021/10/31 00:37:07;;;;;;;26.73;22.23;;;;;;;6.72;100.00;95495.25;1024832;28;20030;-71
2021/10/31 00:37:38;;;;;;;30.38;22.35;;;;;;;6.70;100.00;95492.88;1026542;28;20297;-73
2021/10/31 00:38:08;;;;;;;26.63;21.45;;;;;;;6.68;100.00;95491.56;1035114;28;20025;-72
2021/10/31 00:38:38;;;;;;;26.60;20.88;;;;;;;6.72;100.00;95490.81;1028708;28;20117;-72
2021/10/31 00:39:09;;;;;;;23.50;19.48;;;;;;;6.72;100.00;95490.81;1038516;28;20029;-72
2021/10/31 00:39:39;;;;;;;27.95;21.25;;;;;;;6.72;100.00;95490.81;1038309;28;20029;-70
2021/10/31 00:40:11;;;;;;;26.13;20.13;;;;;;;6.72;100.00;95483.00;1034313;28;20120;-72
2021/10/31 00:40:43;;;;;;;24.90;20.05;;;;;;;6.71;100.00;95480.66;1038708;28;20520;-71
2021/10/31 00:41:14;;;;;;;21.92;18.77;;;;;;;6.75;100.00;95486.94;1038600;28;20280;-69
2021/10/31 00:41:44;;;;;;;24.45;18.90;;;;;;;6.77;100.00;95477.84;1042702;28;20263;-72
2021/10/31 00:42:14;;;;;;;22.30;18.55;;;;;;;6.81;100.00;95484.16;1034597;28;20064;-71
2021/10/31 00:42:45;;;;;;;21.88;17.08;;;;;;;6.83;100.00;95484.69;1038725;28;20299;-71
2021/10/31 00:43:15;;;;;;;22.60;17.20;;;;;;;6.87;100.00;95484.19;1034436;28;20022;-72
2021/10/31 00:43:46;;;;;;;21.92;18.27;;;;;;;6.80;100.00;95477.34;1034114;28;20049;-72
2021/10/31 00:44:17;;;;;;;21.05;17.60;;;;;;;6.89;100.00;95485.53;1034446;28;20034;-71
2021/10/31 00:44:47;;;;;;;24.45;16.02;;;;;;;6.93;100.00;95493.66;1028657;28;20031;-72
2021/10/31 00:45:18;;;;;;;21.25;18.02;;;;;;;6.86;100.00;95475.59;1026716;28;20278;-72
2021/10/31 00:45:49;;;;;;;20.80;17.70;;;;;;;6.93;100.00;95486.59;1022307;28;20438;-71
2021/10/31 00:46:19;;;;;;;23.92;18.77;;;;;;;6.92;100.00;95489.47;1027103;28;20038;-72
2021/10/31 00:46:50;;;;;;;22.88;17.52;;;;;;;6.93;100.00;95491.03;1030718;28;20253;-72
2021/10/31 00:47:20;;;;;;;23.67;18.00;;;;;;;6.95;100.00;95487.16;1034766;28;20022;-68
2021/10/31 00:47:52;;;;;;;22.38;16.60;;;;;;;6.97;100.00;95492.13;1042767;28;20488;-74
2021/10/31 00:48:23;;;;;;;20.30;17.15;;;;;;;6.91;100.00;95480.06;1038564;28;20081;-72
2021/10/31 00:48:54;;;;;;;17.98;15.35;;;;;;;6.99;100.00;95490.06;1029801;28;20304;-72
2021/10/31 00:49:24;;;;;;;18.85;15.88;;;;;;;7.01;100.00;95493.22;1026443;28;20626;-72
2021/10/31 00:49:55;;;;;;;18.60;15.48;;;;;;;7.03;100.00;95498.97;1028017;28;20390;-73
2021/10/31 00:50:25;;;;;;;19.10;15.27;;;;;;;7.03;100.00;95501.56;1034339;28;20026;-72
2021/10/31 00:50:56;;;;;;;20.35;16.92;;;;;;;7.04;100.00;95495.31;1030682;28;20033;-71
2021/10/31 00:51:29;;;;;;;19.25;15.85;;;;;;;7.00;100.00;95492.41;1034349;28;20042;-71
2021/10/31 00:52:00;;;;;;;18.85;14.35;;;;;;;7.11;100.00;95498.53;1035048;28;20268;-71
2021/10/31 00:52:31;;;;;;;20.25;16.13;;;;;;;7.07;100.00;95490.41;1035074;28;20595;-72
2021/10/31 00:53:02;;;;;;;16.92;15.07;;;;;;;7.09;100.00;95501.38;1039601;28;20676;-69
2021/10/31 00:53:33;;;;;;;20.95;15.52;;;;;;;7.11;100.00;95497.72;1039205;28;20073;-71
2021/10/31 00:54:04;;;;;;;19.10;15.10;;;;;;;7.12;100.00;95494.09;1035714;28;22224;-70
2021/10/31 00:54:34;;;;;;;18.98;15.13;;;;;;;7.13;100.00;95496.47;1035350;28;20564;-73
2021/10/31 00:55:05;;;;;;;21.55;15.35;;;;;;;7.12;100.00;95489.69;1038961;28;20033;-70
2021/10/31 00:55:37;;;;;;;18.00;14.75;;;;;;;7.11;100.00;95498.53;1030656;28;20025;-72
2021/10/31 00:56:08;;;;;;;17.88;14.68;;;;;;;7.11;100.00;95482.88;1026988;28;20031;-71
2021/10/31 00:56:38;;;;;;;17.33;14.63;;;;;;;7.04;100.00;95477.88;1028341;28;20753;-71
2021/10/31 00:57:09;;;;;;;17.33;14.63;;;;;;;7.04;100.00;95482.28;1031053;28;20456;-69
2021/10/31 00:57:41;;;;;;;17.48;14.20;;;;;;;7.10;100.00;95494.34;1035455;28;20430;-70
2021/10/31 00:58:12;;;;;;;21.25;14.93;;;;;;;7.10;100.00;95491.72;1035064;28;20284;-72
2021/10/31 00:58:43;;;;;;;17.85;15.27;;;;;;;7.03;100.00;95478.09;1035329;28;20267;-71
2021/10/31 00:59:13;;;;;;;19.35;14.70;;;;;;;7.03;100.00;95485.94;1035511;28;20664;-70
2021/10/31 00:59:43;;;;;;;17.60;14.15;;;;;;;7.10;100.00;95489.13;1031623;28;20030;-69
2021/10/31 01:00:14;;;;;;;18.23;14.30;;;;;;;7.04;100.00;95477.06;1035485;28;20583;-70
2021/10/31 01:00:47;;;;;;;14.00;12.40;;;;;;;7.13;100.00;95483.41;1035591;28;20129;-70
2021/10/31 01:01:19;;;;;;;15.52;13.25;;;;;;;7.13;100.00;95480.03;1035895;28;20037;-72
2021/10/31 01:01:51;;;;;;;20.92;16.20;;;;;;;7.16;100.00;95490.75;1039332;28;20268;-70
2021/10/31 01:02:21;;;;;;;19.13;16.38;;;;;;;7.08;100.00;95478.94;1043481;28;20278;-73
2021/10/31 01:02:52;;;;;;;19.02;14.90;;;;;;;7.14;100.00;95490.19;1040276;28;20275;-72
2021/10/31 01:03:22;;;;;;;22.35;15.82;;;;;;;7.06;100.00;95478.41;1038105;28;20112;-72
2021/10/31 01:03:55;;;;;;;23.23;15.68;;;;;;;7.08;100.00;95478.94;1027424;28;20086;-69
2021/10/31 01:04:26;;;;;;;18.15;14.80;;;;;;;7.14;100.00;95487.59;1031201;28;20109;-73
2021/10/31 01:04:59;;;;;;;17.45;14.23;;;;;;;7.17;100.00;95491.53;1031982;28;20289;-72
2021/10/31 01:05:32;;;;;;;13.80;12.27;;;;;;;7.17;100.00;95494.13;1032118;28;20038;-71
2021/10/31 01:06:45;;;;;;;23.33;15.80;;;;;;;7.20;100.00;95501.47;1031218;28;20277;-70
2021/10/31 01:07:47;;;;;;;17.17;14.30;;;;;;;7.18;100.00;95498.34;1029043;28;20285;-74
2021/10/31 01:08:32;;;;;;;17.90;14.80;;;;;;;7.15;100.00;95493.63;1039565;28;20295;-72
2021/10/31 01:09:04;;;;;;;17.40;14.18;;;;;;;7.13;100.00;95496.47;1037537;28;20783;-72
2021/10/31 01:09:34;;;;;;;17.40;15.15;;;;;;;7.13;100.00;95496.47;1031472;28;20265;-72
2021/10/31 01:10:32;;;;;;;20.13;14.80;;;;;;;7.09;100.00;95498.78;1033898;28;20264;-71
2021/10/31 01:11:39;;;;;;;19.23;16.05;;;;;;;7.10;100.00;95496.94;1039217;28;20042;-69
2021/10/31 01:12:44;;;;;;;23.02;18.13;;;;;;;7.13;100.00;95491.25;1046072;28;20301;-73
2021/10/31 01:13:20;;;;;;;20.58;16.60;;;;;;;7.07;100.00;95489.59;1043337;28;20248;-70
2021/10/31 01:14:14;;;;;;;18.23;16.02;;;;;;;7.07;100.00;95492.22;1039957;28;20767;-70
2021/10/31 01:15:07;;;;;;;23.20;17.73;;;;;;;7.08;100.00;95496.44;1030789;28;20270;-71
2021/10/31 01:15:55;;;;;;;21.80;17.15;;;;;;;7.05;100.00;95492.47;1038501;28;20267;-70
2021/10/31 01:16:49;;;;;;;20.65;16.10;;;;;;;7.06;100.00;95495.88;1036683;28;20339;-72
2021/10/31 01:17:32;;;;;;;25.20;17.33;;;;;;;7.07;100.00;95497.44;1032533;28;20335;-72
2021/10/31 01:18:17;;;;;;;23.58;18.10;;;;;;;7.06;100.00;95490.66;1036669;28;20330;-72
2021/10/31 01:19:06;;;;;;;23.40;17.70;;;;;;;7.03;100.00;95497.13;1044282;28;20260;-71
2021/10/31 01:19:39;;;;;;;24.75;19.50;;;;;;;7.04;100.00;95497.94;1043410;28;20364;-71
2021/10/31 01:20:30;;;;;;;37.17;20.63;;;;;;;7.02;100.00;95494.78;1043538;28;20259;-71
2021/10/31 01:21:16;;;;;;;;;;;;;;;7.02;100.00;95495.56;1035738;28;20267;-71
2021/10/31 01:22:15;;;;;;;28.70;20.45;;;;;;;7.00;100.00;95491.63;1035275;28;19917;-71
2021/10/31 01:23:09;;;;;;;30.67;22.30;;;;;;;6.93;100.00;95496.25;1040096;28;20260;-71
2021/10/31 01:24:06;;;;;;;28.58;20.40;;;;;;;6.88;100.00;95493.59;1038432;28;20276;-71
2021/10/31 01:24:45;;;;;;;25.40;20.25;;;;;;;6.85;100.00;95498.28;1038898;28;20276;-71
2021/10/31 01:25:43;;;;;;;25.70;20.17;;;;;;;6.74;100.00;95488.78;1035438;28;20349;-70
2021/10/31 01:26:22;;;;;;;27.25;20.65;;;;;;;6.76;100.00;95499.72;1028067;28;20266;-72
2021/10/31 01:27:14;;;;;;;21.67;19.17;;;;;;;6.75;100.00;95492.94;1032122;28;20664;-72
2021/10/31 01:27:51;;;;;;;25.17;20.52;;;;;;;6.70;100.00;95487.66;1032123;28;20285;-70
2021/10/31 01:28:46;;;;;;;23.92;20.25;;;;;;;6.72;100.00;95490.81;1039351;28;20268;-70
2021/10/31 01:29:23;;;;;;;23.50;19.42;;;;;;;6.68;100.00;95491.56;1043119;28;20626;-71
2021/10/31 01:30:24;;;;;;;28.52;20.65;;;;;;;6.71;100.00;95498.91;1043984;28;20262;-70
2021/10/31 01:31:16;;;;;;;24.33;20.00;;;;;;;6.54;100.00;95478.13;1033055;28;20264;-70
2021/10/31 01:32:00;;;;;;;28.67;20.42;;;;;;;6.68;100.00;95504.59;1034077;28;20497;-71
2021/10/31 01:32:32;;;;;;;31.48;22.25;;;;;;;6.61;100.00;95500.34;1031907;28;20277;-70
2021/10/31 01:33:14;;;;;;;29.27;23.10;;;;;;;6.58;100.00;95500.06;1034878;28;20268;-70
2021/10/31 01:33:48;;;;;;;31.55;24.55;;;;;;;6.61;100.00;95504.78;1034851;28;20268;-70
2021/10/31 01:34:28;;;;;;;30.15;23.58;;;;;;;6.54;100.00;95497.16;1035487;28;20360;-70
2021/10/31 01:35:10;;;;;;;30.30;23.77;;;;;;;6.54;100.00;95504.97;1040134;28;20639;-72
2021/10/31 01:36:12;;;;;;;34.45;25.77;;;;;;;6.52;100.00;95506.22;1043185;28;20400;-70
2021/10/31 01:37:03;;;;;;;33.65;24.92;;;;;;;6.47;100.00;95508.75;1046172;28;20274;-72
2021/10/31 01:37:59;;;;;;;32.88;25.52;;;;;;;6.43;100.00;95503.25;1033977;28;20295;-70
2021/10/31 01:38:55;;;;;;;31.17;24.13;;;;;;;6.37;100.00;95510.22;1036341;28;20734;-72
2021/10/31 01:39:37;;;;;;;34.03;23.85;;;;;;;6.32;100.00;95502.34;1040518;28;20321;-71
2021/10/31 01:40:27;;;;;;;32.05;24.50;;;;;;;6.29;100.00;95508.03;1038417;28;20279;-72
2021/10/31 01:41:12;;;;;;;32.30;25.02;;;;;;;6.29;100.00;95510.63;1031615;28;20260;-69
2021/10/31 01:41:54;;;;;;;34.17;25.85;;;;;;;6.25;100.00;95509.53;1035387;28;20056;-72
2021/10/31 01:42:42;;;;;;;35.30;26.05;;;;;;;6.28;100.00;95509.06;1031244;28;20257;-70
2021/10/31 01:43:24;;;;;;;33.15;26.08;;;;;;;6.26;100.00;95503.28;1027030;28;20329;-70
2021/10/31 01:44:07;;;;;;;32.72;25.70;;;;;;;6.28;100.00;95511.66;1027090;28;20272;-71
2021/10/31 01:45:00;;;;;;;33.80;26.02;;;;;;;6.27;100.00;95520.53;1031562;28;20297;-71
2021/10/31 01:45:59;;;;;;;34.60;26.58;;;;;;;6.28;100.00;95511.66;1035941;28;20689;-72
2021/10/31 01:46:37;;;;;;;34.42;26.08;;;;;;;6.28;100.00;95516.88;1030624;28;20297;-72
2021/10/31 01:47:13;;;;;;;31.73;25.55;;;;;;;6.26;100.00;95518.13;1026420;28;20883;-72
2021/10/31 01:47:45;;;;;;;36.03;27.65;;;;;;;6.25;100.00;95517.34;1028879;28;21072;-71
2021/10/31 01:48:41;;;;;;;38.35;29.15;;;;;;;6.25;100.00;95513.97;1032672;28;20301;-71
2021/10/31 01:49:16;;;;;;;36.58;26.23;;;;;;;6.22;100.00;95507.41;1034678;28;20284;-73
2021/10/31 01:50:07;;;;;;;36.03;28.45;;;;;;;6.19;100.00;95501.91;1030616;28;21252;-71
2021/10/31 01:50:42;;;;;;;;;;;;;;;6.23;100.00;95513.41;1033479;28;20964;-70
2021/10/31 01:51:21;;;;;;;34.13;26.25;;;;;;;6.16;100.00;95503.16;1030947;28;19914;-73
2021/10/31 01:52:02;;;;;;;36.55;27.65;;;;;;;6.16;100.00;95497.94;1030880;28;20779;-70
2021/10/31 01:52:54;;;;;;;42.28;30.30;;;;;;;6.20;100.00;95512.06;1030915;28;20802;-70
2021/10/31 01:53:43;;;;;;;38.70;30.27;;;;;;;6.18;100.00;95506.31;1030513;28;20300;-71
2021/10/31 01:54:16;;;;;;;38.97;29.30;;;;;;;6.15;100.00;95501.59;1038927;28;20268;-72
2021/10/31 01:54:51;;;;;;;43.35;32.03;;;;;;;6.16;100.00;95499.75;1042966;28;20295;-73
2021/10/31 01:55:22;;;;;;;42.42;30.90;;;;;;;6.14;100.00;95510.44;1035436;28;20273;-70
2021/10/31 01:55:57;;;;;;;46.03;33.13;;;;;;;6.09;100.00;95508.53;1030633;28;20261;-72
2021/10/31 01:56:28;;;;;;;47.17;32.65;;;;;;;6.09;100.00;95502.53;1034245;28;20368;-71
2021/10/31 01:57:00;;;;;;;36.95;29.80;;;;;;;6.07;100.00;95505.41;1030768;28;20273;-68
2021/10/31 01:57:31;;;;;;;39.75;30.92;;;;;;;6.06;100.00;95505.63;1030495;28;20534;-71
2021/10/31 01:58:01;;;;;;;49.05;32.80;;;;;;;6.02;100.00;95492.28;1030342;28;20268;-72
2021/10/31 01:58:34;;;;;;;40.30;29.98;;;;;;;6.06;100.00;95503.03;1041715;28;20025;-73
2021/10/31 01:59:27;;;;;;;38.53;28.17;;;;;;;6.02;100.00;95504.53;1038522;28;20017;-70
2021/10/31 02:00:00;;;;;;;39.10;27.73;;;;;;;6.00;100.00;95503.97;1037205;28;20260;-72
2021/10/31 02:00:31;;;;;;;35.20;26.23;;;;;;;5.99;100.00;95500.59;1036426;28;20355;-71
2021/10/31 02:01:02;;;;;;;38.65;28.52;;;;;;;5.95;100.00;95496.88;1034068;28;20257;-71
2021/10/31 02:01:33;;;;;;;36.25;28.10;;;;;;;5.90;100.00;95494.16;1031473;28;20363;-72
2021/10/31 02:02:04;;;;;;;36.60;26.98;;;;;;;5.95;100.00;95501.31;1032543;28;20882;-72
2021/10/31 02:02:37;;;;;;;35.92;27.23;;;;;;;5.91;100.00;95500.97;1034512;28;20283;-70
2021/10/31 02:03:11;;;;;;;32.70;26.15;;;;;;;5.92;100.00;95507.75;1032963;28;20297;-72
2021/10/31 02:03:41;;;;;;;32.70;25.48;;;;;;;5.91;100.00;95506.97;1038285;28;20797;-71
2021/10/31 02:04:13;;;;;;;34.88;27.08;;;;;;;5.82;100.00;95497.97;1038758;28;20846;-70
2021/10/31 02:04:46;;;;;;;34.30;27.48;;;;;;;5.90;100.00;95509.78;1034649;28;20022;-70
2021/10/31 02:05:19;;;;;;;32.17;25.70;;;;;;;5.88;100.00;95498.84;1022378;29;20267;-71
2021/10/31 02:05:49;;;;;;;33.67;26.42;;;;;;;5.87;100.00;95502.47;1038362;28;20362;-70
2021/10/31 02:06:20;;;;;;;31.25;25.70;;;;;;;5.88;100.00;95506.66;1035021;28;20268;-72
2021/10/31 02:06:51;;;;;;;27.73;23.90;;;;;;;5.83;100.00;95499.53;1034562;28;20025;-71
2021/10/31 02:07:21;;;;;;;32.58;26.02;;;;;;;5.91;100.00;95514.00;1034946;28;20029;-72
2021/10/31 02:07:53;;;;;;;35.97;26.75;;;;;;;5.90;100.00;95513.19;1034980;28;20024;-71
2021/10/31 02:08:24;;;;;;;38.65;25.38;;;;;;;5.88;100.00;95509.25;1030733;28;20026;-72
2021/10/31 02:08:55;;;;;;;35.45;26.35;;;;;;;5.88;100.00;95515.25;1035109;28;20253;-72
2021/10/31 02:09:25;;;;;;;36.83;25.80;;;;;;;5.88;100.00;95506.66;1034945;28;20034;-71
2021/10/31 02:09:55;;;;;;;35.03;26.83;;;;;;;5.88;100.00;95507.44;1030598;28;20409;-71
2021/10/31 02:10:26;;;;;;;34.15;26.35;;;;;;;5.83;100.00;95503.97;1026978;28;20508;-71
2021/10/31 02:10:56;;;;;;;36.17;26.83;;;;;;;5.87;100.00;95516.28;1026839;28;20019;-70
2021/10/31 02:11:27;;;;;;;31.92;26.27;;;;;;;5.83;100.00;95509.16;1034919;28;20030;-72
2021/10/31 02:11:58;;;;;;;32.17;24.55;;;;;;;5.87;100.00;95513.69;1042915;28;20013;-72
2021/10/31 02:12:28;;;;;;;35.72;26.08;;;;;;;5.85;100.00;95515.72;1034921;28;20025;-71
2021/10/31 02:13:00;;;;;;;35.50;25.65;;;;;;;5.81;100.00;95504.22;1030782;28;20024;-70
2021/10/31 02:13:30;;;;;;;31.63;25.33;;;;;;;5.88;100.00;95517.84;1034841;28;20468;-72
2021/10/31 02:14:01;;;;;;;35.63;26.90;;;;;;;5.79;100.00;95506.25;1034928;28;20292;-72
2021/10/31 02:14:31;;;;;;;36.47;26.27;;;;;;;5.86;100.00;95514.69;1026982;28;20011;-71
2021/10/31 02:15:03;;;;;;;31.13;25.83;;;;;;;5.87;100.00;95518.09;1029758;28;20026;-72
2021/10/31 02:15:33;;;;;;;33.28;25.42;;;;;;;5.87;100.00;95516.28;1030264;28;20026;-71
2021/10/31 02:16:04;;;;;;;34.28;26.13;;;;;;;5.85;100.00;95515.72;1034688;28;20683;-71
2021/10/31 02:16:34;;;;;;;32.58;25.83;;;;;;;5.78;100.00;95504.69;1035042;28;20014;-72
2021/10/31 02:17:05;;;;;;;40.33;26.85;;;;;;;5.79;100.00;95503.66;1034007;28;20021;-72
2021/10/31 02:17:35;;;;;;;34.38;25.60;;;;;;;5.78;100.00;95512.50;1026811;28;20106;-73
2021/10/31 02:18:06;;;;;;;33.97;27.50;;;;;;;5.79;100.00;95514.06;1026595;28;20046;-70
2021/10/31 02:18:36;;;;;;;36.55;27.65;;;;;;;5.74;100.00;95527.00;1032515;28;20081;-71
2021/10/31 02:19:09;;;;;;;38.33;28.52;;;;;;;5.76;100.00;95521.56;1034897;28;20101;-72
2021/10/31 02:19:41;;;;;;;41.30;28.88;;;;;;;5.72;100.00;95521.25;1030669;28;20125;-71
2021/10/31 02:20:11;;;;;;;33.40;27.52;;;;;;;5.71;100.00;95530.09;1030367;28;20278;-73
2021/10/31 02:20:42;;;;;;;41.90;30.50;;;;;;;5.71;100.00;95521.50;1034823;28;20815;-70
2021/10/31 02:21:21;;;;;;;34.67;26.20;;;;;;;5.78;100.00;95535.91;1030899;28;20087;-70
2021/10/31 02:21:58;;;;;;;31.50;22.88;;;;;;;5.81;100.00;95522.44;1027149;28;20653;-71
2021/10/31 02:22:29;;;;;;;29.08;22.45;;;;;;;5.83;100.00;95528.19;1026783;28;20269;-72
2021/10/31 02:23:00;;;;;;;24.33;18.88;;;;;;;5.93;100.00;95534.59;1034848;28;20386;-71
2021/10/31 02:23:30;;;;;;;23.02;17.80;;;;;;;5.77;100.00;95505.72;1034982;28;20791;-71
2021/10/31 02:24:02;;;;;;;20.00;16.95;;;;;;;6.04;100.00;95539.72;1043174;28;20020;-71
2021/10/31 02:24:32;;;;;;;20.23;16.95;;;;;;;6.04;100.00;95537.13;1039233;28;20106;-70
2021/10/31 02:25:03;;;;;;;21.55;17.25;;;;;;;6.04;100.00;95524.09;1030602;28;20648;-70
2021/10/31 02:25:33;;;;;;;23.83;18.27;;;;;;;6.11;100.00;95534.34;1025824;28;20410;-71
2021/10/31 02:26:06;;;;;;;19.73;16.73;;;;;;;6.12;100.00;95531.50;1034758;28;20022;-71
2021/10/31 02:26:37;;;;;;;18.45;15.60;;;;;;;6.10;100.00;95524.94;1034950;28;20485;-70
2021/10/31 02:27:15;;;;;;;19.75;16.63;;;;;;;6.16;100.00;95529.22;1030532;28;20274;-71
2021/10/31 02:27:46;;;;;;;22.67;17.65;;;;;;;6.14;100.00;95532.06;1032142;28;20265;-71
2021/10/31 02:28:16;;;;;;;22.23;17.35;;;;;;;6.18;100.00;95534.97;1030824;28;20265;-72
2021/10/31 02:28:56;;;;;;;25.15;17.98;;;;;;;6.13;100.00;95525.25;1030483;28;20030;-71
2021/10/31 02:29:28;;;;;;;18.70;15.20;;;;;;;6.14;100.00;95524.25;1022715;29;20031;-72
2021/10/31 02:29:59;;;;;;;22.40;16.77;;;;;;;6.20;100.00;95525.09;1025839;28;20582;-73
2021/10/31 02:30:31;;;;;;;20.25;16.35;;;;;;;6.20;100.00;95525.09;1032489;28;20310;-70
2021/10/31 02:31:01;;;;;;;23.70;18.13;;;;;;;6.18;100.00;95521.94;1031325;28;21193;-71
2021/10/31 02:31:31;;;;;;;23.30;17.65;;;;;;;6.21;100.00;95526.69;1034842;28;20280;-71
2021/10/31 02:32:02;;;;;;;20.30;17.40;;;;;;;6.21;100.00;95521.47;1030052;28;20647;-70
2021/10/31 02:32:33;;;;;;;22.25;18.33;;;;;;;6.21;100.00;95526.69;1031193;28;20441;-71
2021/10/31 02:33:03;;;;;;;23.15;18.77;;;;;;;6.21;100.00;95525.91;1035152;28;20026;-70
2021/10/31 02:33:34;;;;;;;23.00;18.15;;;;;;;6.20;100.00;95525.09;1031066;28;20297;-70
2021/10/31 02:34:07;;;;;;;23.20;16.90;;;;;;;6.19;100.00;95520.13;1030596;28;20030;-70
2021/10/31 02:34:38;;;;;;;21.45;18.23;;;;;;;6.21;100.00;95524.09;1030826;28;20023;-70
2021/10/31 02:35:11;;;;;;;21.17;17.02;;;;;;;6.22;100.00;95523.03;1028942;28;20660;-69
2021/10/31 02:35:41;;;;;;;19.83;17.23;;;;;;;6.12;100.00;95508.06;1025164;28;21525;-70
2021/10/31 02:36:12;;;;;;;23.55;17.20;;;;;;;6.21;100.00;95511.06;1028266;28;20281;-70
2021/10/31 02:36:43;;;;;;;23.45;17.45;;;;;;;6.23;100.00;95522.00;1030855;28;20109;-70
2021/10/31 02:37:13;;;;;;;19.63;16.83;;;;;;;6.13;100.00;95501.81;1035160;28;20116;-69
2021/10/31 02:37:44;;;;;;;22.10;16.90;;;;;;;6.20;100.00;95516.50;1034768;28;20829;-71
2021/10/31 02:38:17;;;;;;;18.60;15.88;;;;;;;6.20;100.00;95519.88;1038366;28;20025;-72
2021/10/31 02:38:48;;;;;;;18.88;14.40;;;;;;;6.21;100.00;95513.66;1039837;28;20120;-70
2021/10/31 02:39:18;;;;;;;17.58;14.43;;;;;;;6.22;100.00;95514.44;1034814;28;20265;-72
2021/10/31 02:39:49;;;;;;;16.20;14.10;;;;;;;6.24;100.00;95513.19;1034619;28;20045;-70